sensor_id;sensor_type;location;lat;lon;timestamp;P1;durP1;ratioP1;P2;durP2;ratioP2
5876;SDS011;2964;42.144;24.730;2022-11-15T00:01:07;59.43;;;35.23;;
5876;SDS011;2964;42.144;24.730;2022-11-15T00:03:34;57.87;;;35.53;;
5876;SDS011;2964;42.144;24.730;2022-11-15T00:06:01;58.20;;;34.50;;
5876;SDS011;2964;42.144;24.730;2022-11-15T00:08:29;59.30;;;35.37;;
5876;SDS011;2964;42.144;24.730;2022-11-15T00:10:56;58.53;;;35.93;;
5876;SDS011;2964;42.144;24.730;2022-11-15T00:13:24;62.80;;;37.13;;
5876;SDS011;2964;42.144;24.730;2022-11-15T00:15:51;65.20;;;36.47;;
5876;SDS011;2964;42.144;24.730;2022-11-15T00:18:19;61.03;;;34.70;;
5876;SDS011;2964;42.144;24.730;2022-11-15T00:20:46;66.57;;;38.97;;
5876;SDS011;2964;42.144;24.730;2022-11-15T00:23:12;65.80;;;38.60;;
5876;SDS011;2964;42.144;24.730;2022-11-15T00:25:39;55.00;;;35.73;;
5876;SDS011;2964;42.144;24.730;2022-11-15T00:28:06;57.40;;;34.67;;
5876;SDS011;2964;42.144;24.730;2022-11-15T00:30:32;53.80;;;35.10;;
5876;SDS011;2964;42.144;24.730;2022-11-15T00:33:01;52.70;;;31.93;;
5876;SDS011;2964;42.144;24.730;2022-11-15T00:35:30;54.60;;;33.13;;
5876;SDS011;2964;42.144;24.730;2022-11-15T00:37:58;55.10;;;33.13;;
5876;SDS011;2964;42.144;24.730;2022-11-15T00:40:25;51.60;;;33.13;;
5876;SDS011;2964;42.144;24.730;2022-11-15T00:42:52;53.10;;;34.43;;
5876;SDS011;2964;42.144;24.730;2022-11-15T00:45:18;51.63;;;32.67;;
5876;SDS011;2964;42.144;24.730;2022-11-15T00:47:45;56.77;;;32.80;;
5876;SDS011;2964;42.144;24.730;2022-11-15T00:50:12;52.13;;;32.33;;
5876;SDS011;2964;42.144;24.730;2022-11-15T00:52:40;58.93;;;36.27;;
5876;SDS011;2964;42.144;24.730;2022-11-15T00:55:08;54.20;;;34.33;;
5876;SDS011;2964;42.144;24.730;2022-11-15T00:57:38;55.70;;;33.80;;
5876;SDS011;2964;42.144;24.730;2022-11-15T01:00:06;54.97;;;35.33;;
5876;SDS011;2964;42.144;24.730;2022-11-15T01:02:33;54.93;;;32.23;;
5876;SDS011;2964;42.144;24.730;2022-11-15T01:05:00;49.37;;;32.07;;
5876;SDS011;2964;42.144;24.730;2022-11-15T01:07:27;47.40;;;30.80;;
5876;SDS011;2964;42.144;24.730;2022-11-15T01:09:55;55.33;;;33.03;;
5876;SDS011;2964;42.144;24.730;2022-11-15T01:12:21;51.67;;;32.47;;
5876;SDS011;2964;42.144;24.730;2022-11-15T01:14:49;52.47;;;33.23;;
5876;SDS011;2964;42.144;24.730;2022-11-15T01:17:15;50.07;;;31.60;;
5876;SDS011;2964;42.144;24.730;2022-11-15T01:19:42;51.27;;;31.57;;
5876;SDS011;2964;42.144;24.730;2022-11-15T01:22:09;57.00;;;32.50;;
5876;SDS011;2964;42.144;24.730;2022-11-15T01:24:36;55.50;;;33.63;;
5876;SDS011;2964;42.144;24.730;2022-11-15T01:27:04;50.53;;;32.17;;
5876;SDS011;2964;42.144;24.730;2022-11-15T01:29:30;52.77;;;31.70;;
5876;SDS011;2964;42.144;24.730;2022-11-15T01:31:57;42.70;;;28.53;;
5876;SDS011;2964;42.144;24.730;2022-11-15T01:34:24;52.67;;;32.90;;
5876;SDS011;2964;42.144;24.730;2022-11-15T01:36:51;52.77;;;30.33;;
5876;SDS011;2964;42.144;24.730;2022-11-15T01:39:17;50.87;;;31.27;;
5876;SDS011;2964;42.144;24.730;2022-11-15T01:41:44;47.70;;;30.07;;
5876;SDS011;2964;42.144;24.730;2022-11-15T01:47:20;44.40;;;28.40;;
5876;SDS011;2964;42.144;24.730;2022-11-15T01:49:51;51.90;;;28.87;;
5876;SDS011;2964;42.144;24.730;2022-11-15T01:52:24;50.80;;;30.57;;
5876;SDS011;2964;42.144;24.730;2022-11-15T01:54:53;53.87;;;31.40;;
5876;SDS011;2964;42.144;24.730;2022-11-15T01:57:26;51.53;;;29.60;;
5876;SDS011;2964;42.144;24.730;2022-11-15T01:59:53;44.03;;;28.73;;
5876;SDS011;2964;42.144;24.730;2022-11-15T02:02:22;53.30;;;30.53;;
5876;SDS011;2964;42.144;24.730;2022-11-15T02:04:48;51.07;;;29.83;;
5876;SDS011;2964;42.144;24.730;2022-11-15T02:07:15;49.40;;;29.97;;
5876;SDS011;2964;42.144;24.730;2022-11-15T02:09:43;43.70;;;28.70;;
5876;SDS011;2964;42.144;24.730;2022-11-15T02:12:12;44.50;;;29.60;;
5876;SDS011;2964;42.144;24.730;2022-11-15T02:14:42;50.93;;;30.73;;
5876;SDS011;2964;42.144;24.730;2022-11-15T02:17:26;58.30;;;30.50;;
5876;SDS011;2964;42.144;24.730;2022-11-15T02:20:20;52.43;;;29.47;;
5876;SDS011;2964;42.144;24.730;2022-11-15T02:23:05;48.27;;;28.47;;
5876;SDS011;2964;42.144;24.730;2022-11-15T02:25:54;49.70;;;29.60;;
5876;SDS011;2964;42.144;24.730;2022-11-15T02:28:38;42.53;;;27.33;;
5876;SDS011;2964;42.144;24.730;2022-11-15T02:31:16;45.40;;;27.83;;
5876;SDS011;2964;42.144;24.730;2022-11-15T02:33:52;39.23;;;25.73;;
5876;SDS011;2964;42.144;24.730;2022-11-15T02:36:29;41.97;;;26.90;;
5876;SDS011;2964;42.144;24.730;2022-11-15T02:39:03;39.93;;;27.43;;
5876;SDS011;2964;42.144;24.730;2022-11-15T02:41:39;43.77;;;26.50;;
5876;SDS011;2964;42.144;24.730;2022-11-15T02:44:12;39.03;;;25.80;;
5876;SDS011;2964;42.144;24.730;2022-11-15T02:46:45;37.57;;;25.70;;
5876;SDS011;2964;42.144;24.730;2022-11-15T02:49:33;39.30;;;24.93;;
5876;SDS011;2964;42.144;24.730;2022-11-15T02:52:00;44.30;;;27.93;;
5876;SDS011;2964;42.144;24.730;2022-11-15T02:54:29;47.37;;;28.83;;
5876;SDS011;2964;42.144;24.730;2022-11-15T02:56:59;48.70;;;27.53;;
5876;SDS011;2964;42.144;24.730;2022-11-15T02:59:33;48.80;;;29.00;;
5876;SDS011;2964;42.144;24.730;2022-11-15T03:02:16;42.27;;;27.13;;
5876;SDS011;2964;42.144;24.730;2022-11-15T03:04:55;44.73;;;27.73;;
5876;SDS011;2964;42.144;24.730;2022-11-15T03:07:25;48.33;;;29.13;;
5876;SDS011;2964;42.144;24.730;2022-11-15T03:09:57;48.93;;;28.57;;
5876;SDS011;2964;42.144;24.730;2022-11-15T03:12:34;47.30;;;27.40;;
5876;SDS011;2964;42.144;24.730;2022-11-15T03:15:07;45.30;;;28.70;;
5876;SDS011;2964;42.144;24.730;2022-11-15T03:17:45;44.83;;;27.57;;
5876;SDS011;2964;42.144;24.730;2022-11-15T03:20:17;50.33;;;28.77;;
5876;SDS011;2964;42.144;24.730;2022-11-15T03:22:45;48.83;;;29.37;;
5876;SDS011;2964;42.144;24.730;2022-11-15T03:25:16;53.40;;;29.80;;
5876;SDS011;2964;42.144;24.730;2022-11-15T03:27:46;48.03;;;27.57;;
5876;SDS011;2964;42.144;24.730;2022-11-15T03:30:17;46.87;;;27.93;;
5876;SDS011;2964;42.144;24.730;2022-11-15T03:32:46;43.83;;;26.37;;
5876;SDS011;2964;42.144;24.730;2022-11-15T03:35:17;45.43;;;28.40;;
5876;SDS011;2964;42.144;24.730;2022-11-15T03:37:46;47.73;;;29.23;;
5876;SDS011;2964;42.144;24.730;2022-11-15T03:40:17;44.47;;;27.10;;
5876;SDS011;2964;42.144;24.730;2022-11-15T03:42:53;47.67;;;27.77;;
5876;SDS011;2964;42.144;24.730;2022-11-15T03:45:26;41.67;;;25.57;;
5876;SDS011;2964;42.144;24.730;2022-11-15T03:47:59;38.87;;;26.07;;
5876;SDS011;2964;42.144;24.730;2022-11-15T03:50:31;45.53;;;27.23;;
5876;SDS011;2964;42.144;24.730;2022-11-15T03:52:58;39.63;;;26.53;;
5876;SDS011;2964;42.144;24.730;2022-11-15T03:55:25;43.83;;;28.00;;
5876;SDS011;2964;42.144;24.730;2022-11-15T03:57:52;40.87;;;26.37;;
5876;SDS011;2964;42.144;24.730;2022-11-15T04:00:21;41.00;;;26.50;;
5876;SDS011;2964;42.144;24.730;2022-11-15T04:02:48;46.93;;;27.27;;
5876;SDS011;2964;42.144;24.730;2022-11-15T04:05:16;44.53;;;27.37;;
5876;SDS011;2964;42.144;24.730;2022-11-15T04:07:43;46.83;;;26.80;;
5876;SDS011;2964;42.144;24.730;2022-11-15T04:10:10;54.90;;;28.07;;
5876;SDS011;2964;42.144;24.730;2022-11-15T04:12:39;45.43;;;26.70;;
5876;SDS011;2964;42.144;24.730;2022-11-15T04:15:09;52.10;;;27.40;;
5876;SDS011;2964;42.144;24.730;2022-11-15T04:17:38;45.60;;;24.70;;
5876;SDS011;2964;42.144;24.730;2022-11-15T04:20:07;34.20;;;23.43;;
5876;SDS011;2964;42.144;24.730;2022-11-15T04:22:55;36.67;;;22.30;;
5876;SDS011;2964;42.144;24.730;2022-11-15T04:25:40;36.17;;;22.87;;
5876;SDS011;2964;42.144;24.730;2022-11-15T04:28:07;33.87;;;22.73;;
5876;SDS011;2964;42.144;24.730;2022-11-15T04:30:34;30.47;;;21.90;;
5876;SDS011;2964;42.144;24.730;2022-11-15T04:33:01;36.47;;;23.33;;
5876;SDS011;2964;42.144;24.730;2022-11-15T04:35:28;36.07;;;23.43;;
5876;SDS011;2964;42.144;24.730;2022-11-15T04:37:56;35.10;;;22.63;;
5876;SDS011;2964;42.144;24.730;2022-11-15T04:40:22;34.10;;;22.80;;
5876;SDS011;2964;42.144;24.730;2022-11-15T04:42:49;32.70;;;23.77;;
5876;SDS011;2964;42.144;24.730;2022-11-15T04:45:16;33.13;;;22.03;;
5876;SDS011;2964;42.144;24.730;2022-11-15T04:47:43;36.83;;;24.63;;
5876;SDS011;2964;42.144;24.730;2022-11-15T04:50:11;40.33;;;24.23;;
5876;SDS011;2964;42.144;24.730;2022-11-15T04:52:39;45.03;;;24.10;;
5876;SDS011;2964;42.144;24.730;2022-11-15T04:55:08;38.08;;;25.52;;
5876;SDS011;2964;42.144;24.730;2022-11-15T04:57:34;36.07;;;22.43;;
5876;SDS011;2964;42.144;24.730;2022-11-15T05:00:01;36.30;;;22.43;;
5876;SDS011;2964;42.144;24.730;2022-11-15T05:02:29;36.83;;;23.87;;
5876;SDS011;2964;42.144;24.730;2022-11-15T05:05:15;32.53;;;22.87;;
5876;SDS011;2964;42.144;24.730;2022-11-15T05:07:41;34.77;;;25.20;;
5876;SDS011;2964;42.144;24.730;2022-11-15T05:10:09;35.20;;;22.77;;
5876;SDS011;2964;42.144;24.730;2022-11-15T05:12:36;37.23;;;23.43;;
5876;SDS011;2964;42.144;24.730;2022-11-15T05:15:03;44.73;;;25.17;;
5876;SDS011;2964;42.144;24.730;2022-11-15T05:17:30;39.17;;;24.17;;
5876;SDS011;2964;42.144;24.730;2022-11-15T05:19:57;37.10;;;25.07;;
5876;SDS011;2964;42.144;24.730;2022-11-15T05:22:24;35.47;;;23.17;;
5876;SDS011;2964;42.144;24.730;2022-11-15T05:24:50;35.87;;;24.83;;
5876;SDS011;2964;42.144;24.730;2022-11-15T05:27:18;44.43;;;24.90;;
5876;SDS011;2964;42.144;24.730;2022-11-15T05:29:45;40.07;;;24.43;;
5876;SDS011;2964;42.144;24.730;2022-11-15T05:32:12;42.07;;;25.57;;
5876;SDS011;2964;42.144;24.730;2022-11-15T05:34:39;49.20;;;26.33;;
5876;SDS011;2964;42.144;24.730;2022-11-15T05:37:05;42.03;;;24.20;;
5876;SDS011;2964;42.144;24.730;2022-11-15T05:39:32;35.27;;;23.73;;
5876;SDS011;2964;42.144;24.730;2022-11-15T05:41:59;38.63;;;23.43;;
5876;SDS011;2964;42.144;24.730;2022-11-15T05:44:31;35.63;;;21.70;;
5876;SDS011;2964;42.144;24.730;2022-11-15T05:47:00;71.27;;;30.00;;
5876;SDS011;2964;42.144;24.730;2022-11-15T05:49:27;45.87;;;24.63;;
5876;SDS011;2964;42.144;24.730;2022-11-15T05:51:57;40.93;;;23.13;;
5876;SDS011;2964;42.144;24.730;2022-11-15T05:54:25;38.50;;;23.03;;
5876;SDS011;2964;42.144;24.730;2022-11-15T05:56:52;36.67;;;24.27;;
5876;SDS011;2964;42.144;24.730;2022-11-15T05:59:20;38.53;;;22.43;;
5876;SDS011;2964;42.144;24.730;2022-11-15T06:01:48;42.63;;;22.83;;
5876;SDS011;2964;42.144;24.730;2022-11-15T06:04:15;38.03;;;23.13;;
5876;SDS011;2964;42.144;24.730;2022-11-15T06:06:42;35.50;;;22.70;;
5876;SDS011;2964;42.144;24.730;2022-11-15T06:09:08;34.27;;;21.73;;
5876;SDS011;2964;42.144;24.730;2022-11-15T06:11:35;47.17;;;22.27;;
5876;SDS011;2964;42.144;24.730;2022-11-15T06:14:02;36.73;;;23.00;;
5876;SDS011;2964;42.144;24.730;2022-11-15T06:16:28;36.73;;;21.17;;
5876;SDS011;2964;42.144;24.730;2022-11-15T06:18:57;25.83;;;19.03;;
5876;SDS011;2964;42.144;24.730;2022-11-15T06:21:23;26.10;;;18.33;;
5876;SDS011;2964;42.144;24.730;2022-11-15T06:23:52;30.23;;;20.37;;
5876;SDS011;2964;42.144;24.730;2022-11-15T06:26:19;27.57;;;20.03;;
5876;SDS011;2964;42.144;24.730;2022-11-15T06:28:46;31.60;;;21.13;;
5876;SDS011;2964;42.144;24.730;2022-11-15T06:31:13;30.00;;;20.13;;
5876;SDS011;2964;42.144;24.730;2022-11-15T06:33:39;34.83;;;21.87;;
5876;SDS011;2964;42.144;24.730;2022-11-15T06:36:09;42.00;;;20.67;;
5876;SDS011;2964;42.144;24.730;2022-11-15T06:38:38;47.23;;;22.50;;
5876;SDS011;2964;42.144;24.730;2022-11-15T06:41:06;36.17;;;21.20;;
5876;SDS011;2964;42.144;24.730;2022-11-15T06:43:34;34.70;;;20.93;;
5876;SDS011;2964;42.144;24.730;2022-11-15T06:46:01;38.03;;;22.10;;
5876;SDS011;2964;42.144;24.730;2022-11-15T06:48:30;39.67;;;20.57;;
5876;SDS011;2964;42.144;24.730;2022-11-15T06:50:58;26.50;;;19.13;;
5876;SDS011;2964;42.144;24.730;2022-11-15T06:53:28;30.33;;;17.27;;
5876;SDS011;2964;42.144;24.730;2022-11-15T06:55:58;29.03;;;18.67;;
5876;SDS011;2964;42.144;24.730;2022-11-15T06:58:25;25.33;;;18.27;;
5876;SDS011;2964;42.144;24.730;2022-11-15T07:00:52;33.57;;;19.77;;
5876;SDS011;2964;42.144;24.730;2022-11-15T07:03:19;43.43;;;20.53;;
5876;SDS011;2964;42.144;24.730;2022-11-15T07:05:50;34.07;;;18.93;;
5876;SDS011;2964;42.144;24.730;2022-11-15T07:08:18;26.77;;;19.87;;
5876;SDS011;2964;42.144;24.730;2022-11-15T07:10:46;27.17;;;19.40;;
5876;SDS011;2964;42.144;24.730;2022-11-15T07:13:13;30.83;;;19.50;;
5876;SDS011;2964;42.144;24.730;2022-11-15T07:15:39;25.00;;;18.17;;
5876;SDS011;2964;42.144;24.730;2022-11-15T07:18:06;27.80;;;18.40;;
5876;SDS011;2964;42.144;24.730;2022-11-15T07:20:33;32.50;;;19.43;;
5876;SDS011;2964;42.144;24.730;2022-11-15T07:23:00;31.43;;;19.50;;
5876;SDS011;2964;42.144;24.730;2022-11-15T07:25:27;24.27;;;18.40;;
5876;SDS011;2964;42.144;24.730;2022-11-15T07:27:55;37.23;;;20.50;;
5876;SDS011;2964;42.144;24.730;2022-11-15T07:30:22;30.43;;;19.63;;
5876;SDS011;2964;42.144;24.730;2022-11-15T07:32:51;27.90;;;18.57;;
5876;SDS011;2964;42.144;24.730;2022-11-15T07:35:19;32.77;;;19.13;;
5876;SDS011;2964;42.144;24.730;2022-11-15T07:37:52;31.33;;;20.13;;
5876;SDS011;2964;42.144;24.730;2022-11-15T07:40:20;27.63;;;20.20;;
5876;SDS011;2964;42.144;24.730;2022-11-15T07:42:46;28.03;;;20.40;;
5876;SDS011;2964;42.144;24.730;2022-11-15T07:45:22;26.63;;;20.30;;
5876;SDS011;2964;42.144;24.730;2022-11-15T07:47:50;29.80;;;19.30;;
5876;SDS011;2964;42.144;24.730;2022-11-15T07:50:18;25.37;;;19.17;;
5876;SDS011;2964;42.144;24.730;2022-11-15T07:52:45;29.80;;;20.07;;
5876;SDS011;2964;42.144;24.730;2022-11-15T07:55:11;29.47;;;20.67;;
5876;SDS011;2964;42.144;24.730;2022-11-15T07:57:38;27.80;;;19.50;;
5876;SDS011;2964;42.144;24.730;2022-11-15T08:00:05;29.23;;;19.60;;
5876;SDS011;2964;42.144;24.730;2022-11-15T08:02:34;29.23;;;19.97;;
5876;SDS011;2964;42.144;24.730;2022-11-15T08:05:00;36.57;;;21.63;;
5876;SDS011;2964;42.144;24.730;2022-11-15T08:07:28;37.03;;;21.20;;
5876;SDS011;2964;42.144;24.730;2022-11-15T08:09:56;32.73;;;19.97;;
5876;SDS011;2964;42.144;24.730;2022-11-15T08:12:22;32.03;;;20.87;;
5876;SDS011;2964;42.144;24.730;2022-11-15T08:14:49;27.83;;;19.17;;
5876;SDS011;2964;42.144;24.730;2022-11-15T08:17:16;29.90;;;20.03;;
5876;SDS011;2964;42.144;24.730;2022-11-15T08:19:44;32.27;;;19.60;;
5876;SDS011;2964;42.144;24.730;2022-11-15T08:22:11;27.33;;;18.83;;
5876;SDS011;2964;42.144;24.730;2022-11-15T08:24:37;29.97;;;20.47;;
5876;SDS011;2964;42.144;24.730;2022-11-15T08:27:04;36.37;;;19.83;;
5876;SDS011;2964;42.144;24.730;2022-11-15T08:29:39;23.97;;;17.30;;
5876;SDS011;2964;42.144;24.730;2022-11-15T08:32:06;28.67;;;18.63;;
5876;SDS011;2964;42.144;24.730;2022-11-15T08:34:33;23.00;;;18.87;;
5876;SDS011;2964;42.144;24.730;2022-11-15T08:37:01;27.63;;;19.60;;
5876;SDS011;2964;42.144;24.730;2022-11-15T08:39:28;30.87;;;19.90;;
5876;SDS011;2964;42.144;24.730;2022-11-15T08:41:54;28.50;;;20.50;;
5876;SDS011;2964;42.144;24.730;2022-11-15T08:44:21;26.23;;;18.80;;
5876;SDS011;2964;42.144;24.730;2022-11-15T08:46:49;28.53;;;20.30;;
5876;SDS011;2964;42.144;24.730;2022-11-15T08:49:16;30.47;;;20.40;;
5876;SDS011;2964;42.144;24.730;2022-11-15T08:51:42;29.53;;;20.33;;
5876;SDS011;2964;42.144;24.730;2022-11-15T08:54:10;31.90;;;20.03;;
5876;SDS011;2964;42.144;24.730;2022-11-15T08:56:37;26.20;;;19.03;;
5876;SDS011;2964;42.144;24.730;2022-11-15T08:59:04;30.67;;;20.63;;
5876;SDS011;2964;42.144;24.730;2022-11-15T09:01:30;25.73;;;19.33;;
5876;SDS011;2964;42.144;24.730;2022-11-15T09:03:57;29.37;;;22.10;;
5876;SDS011;2964;42.144;24.730;2022-11-15T09:06:24;25.43;;;20.60;;
5876;SDS011;2964;42.144;24.730;2022-11-15T09:08:50;36.93;;;21.80;;
5876;SDS011;2964;42.144;24.730;2022-11-15T09:11:19;37.80;;;22.23;;
5876;SDS011;2964;42.144;24.730;2022-11-15T09:13:47;25.50;;;22.20;;
5876;SDS011;2964;42.144;24.730;2022-11-15T09:16:13;28.67;;;22.60;;
5876;SDS011;2964;42.144;24.730;2022-11-15T09:18:40;25.00;;;22.00;;
5876;SDS011;2964;42.144;24.730;2022-11-15T09:21:07;29.43;;;23.63;;
5876;SDS011;2964;42.144;24.730;2022-11-15T09:23:35;31.47;;;21.67;;
5876;SDS011;2964;42.144;24.730;2022-11-15T09:26:02;25.93;;;22.07;;
5876;SDS011;2964;42.144;24.730;2022-11-15T09:28:32;36.53;;;24.83;;
5876;SDS011;2964;42.144;24.730;2022-11-15T09:30:59;24.97;;;22.43;;
5876;SDS011;2964;42.144;24.730;2022-11-15T09:33:27;27.63;;;24.50;;
5876;SDS011;2964;42.144;24.730;2022-11-15T09:35:57;29.30;;;23.50;;
5876;SDS011;2964;42.144;24.730;2022-11-15T09:38:26;42.43;;;30.23;;
5876;SDS011;2964;42.144;24.730;2022-11-15T09:40:53;30.03;;;25.37;;
5876;SDS011;2964;42.144;24.730;2022-11-15T09:43:42;27.17;;;24.20;;
5876;SDS011;2964;42.144;24.730;2022-11-15T09:46:17;27.53;;;24.53;;
5876;SDS011;2964;42.144;24.730;2022-11-15T09:48:51;24.57;;;22.17;;
5876;SDS011;2964;42.144;24.730;2022-11-15T09:51:23;30.47;;;23.33;;
5876;SDS011;2964;42.144;24.730;2022-11-15T09:53:56;27.80;;;23.80;;
5876;SDS011;2964;42.144;24.730;2022-11-15T09:56:29;26.90;;;23.50;;
5876;SDS011;2964;42.144;24.730;2022-11-15T09:59:01;34.70;;;24.10;;
5876;SDS011;2964;42.144;24.730;2022-11-15T10:01:43;35.37;;;24.80;;
5876;SDS011;2964;42.144;24.730;2022-11-15T10:04:15;34.07;;;24.40;;
5876;SDS011;2964;42.144;24.730;2022-11-15T10:06:44;31.87;;;25.10;;
5876;SDS011;2964;42.144;24.730;2022-11-15T10:09:17;30.43;;;24.37;;
5876;SDS011;2964;42.144;24.730;2022-11-15T10:11:49;34.13;;;26.27;;
5876;SDS011;2964;42.144;24.730;2022-11-15T10:14:18;31.57;;;25.73;;
5876;SDS011;2964;42.144;24.730;2022-11-15T10:16:57;31.87;;;24.57;;
5876;SDS011;2964;42.144;24.730;2022-11-15T10:19:35;32.67;;;24.60;;
5876;SDS011;2964;42.144;24.730;2022-11-15T10:22:14;36.77;;;27.27;;
5876;SDS011;2964;42.144;24.730;2022-11-15T10:24:48;34.00;;;26.10;;
5876;SDS011;2964;42.144;24.730;2022-11-15T10:27:18;34.43;;;25.90;;
5876;SDS011;2964;42.144;24.730;2022-11-15T10:29:47;34.63;;;24.80;;
5876;SDS011;2964;42.144;24.730;2022-11-15T10:32:17;41.67;;;26.93;;
5876;SDS011;2964;42.144;24.730;2022-11-15T10:34:47;35.63;;;24.73;;
5876;SDS011;2964;42.144;24.730;2022-11-15T10:37:14;32.10;;;25.43;;
5876;SDS011;2964;42.144;24.730;2022-11-15T10:40:02;31.80;;;24.93;;
5876;SDS011;2964;42.144;24.730;2022-11-15T10:42:30;43.83;;;27.37;;
5876;SDS011;2964;42.144;24.730;2022-11-15T10:44:58;34.43;;;25.70;;
5876;SDS011;2964;42.144;24.730;2022-11-15T10:47:25;28.17;;;23.33;;
5876;SDS011;2964;42.144;24.730;2022-11-15T10:49:56;33.77;;;24.50;;
5876;SDS011;2964;42.144;24.730;2022-11-15T10:52:25;30.80;;;24.00;;
5876;SDS011;2964;42.144;24.730;2022-11-15T10:54:53;30.57;;;23.53;;
5876;SDS011;2964;42.144;24.730;2022-11-15T10:57:24;34.63;;;25.50;;
5876;SDS011;2964;42.144;24.730;2022-11-15T10:59:53;34.90;;;24.00;;
5876;SDS011;2964;42.144;24.730;2022-11-15T11:02:31;31.33;;;23.77;;
5876;SDS011;2964;42.144;24.730;2022-11-15T11:05:01;32.43;;;23.80;;
5876;SDS011;2964;42.144;24.730;2022-11-15T11:07:31;32.53;;;24.53;;
5876;SDS011;2964;42.144;24.730;2022-11-15T11:10:00;32.60;;;23.13;;
5876;SDS011;2964;42.144;24.730;2022-11-15T11:12:29;30.57;;;24.23;;
5876;SDS011;2964;42.144;24.730;2022-11-15T11:14:58;36.60;;;24.67;;
5876;SDS011;2964;42.144;24.730;2022-11-15T11:17:32;37.70;;;25.57;;
5876;SDS011;2964;42.144;24.730;2022-11-15T11:20:10;34.80;;;25.10;;
5876;SDS011;2964;42.144;24.730;2022-11-15T11:22:50;41.70;;;25.23;;
5876;SDS011;2964;42.144;24.730;2022-11-15T11:25:29;32.67;;;24.60;;
5876;SDS011;2964;42.144;24.730;2022-11-15T11:28:12;36.23;;;25.83;;
5876;SDS011;2964;42.144;24.730;2022-11-15T11:30:48;38.00;;;25.57;;
5876;SDS011;2964;42.144;24.730;2022-11-15T11:33:24;35.07;;;26.03;;
5876;SDS011;2964;42.144;24.730;2022-11-15T11:35:59;35.73;;;26.87;;
5876;SDS011;2964;42.144;24.730;2022-11-15T11:38:39;38.30;;;28.03;;
5876;SDS011;2964;42.144;24.730;2022-11-15T11:41:17;36.83;;;25.70;;
5876;SDS011;2964;42.144;24.730;2022-11-15T11:43:55;36.90;;;28.13;;
5876;SDS011;2964;42.144;24.730;2022-11-15T11:46:37;36.53;;;28.37;;
5876;SDS011;2964;42.144;24.730;2022-11-15T11:49:16;39.40;;;28.27;;
5876;SDS011;2964;42.144;24.730;2022-11-15T11:51:49;44.67;;;28.00;;
5876;SDS011;2964;42.144;24.730;2022-11-15T11:54:22;40.37;;;26.60;;
5876;SDS011;2964;42.144;24.730;2022-11-15T11:56:51;38.77;;;26.73;;
5876;SDS011;2964;42.144;24.730;2022-11-15T11:59:25;39.37;;;27.53;;
5876;SDS011;2964;42.144;24.730;2022-11-15T12:02:01;39.07;;;27.27;;
5876;SDS011;2964;42.144;24.730;2022-11-15T12:04:38;38.47;;;26.50;;
5876;SDS011;2964;42.144;24.730;2022-11-15T12:07:08;38.17;;;26.83;;
5876;SDS011;2964;42.144;24.730;2022-11-15T12:09:43;35.40;;;26.73;;
5876;SDS011;2964;42.144;24.730;2022-11-15T12:12:17;43.30;;;27.73;;
5876;SDS011;2964;42.144;24.730;2022-11-15T12:14:50;41.67;;;28.00;;
5876;SDS011;2964;42.144;24.730;2022-11-15T12:17:23;41.17;;;27.33;;
5876;SDS011;2964;42.144;24.730;2022-11-15T12:19:52;54.23;;;28.60;;
5876;SDS011;2964;42.144;24.730;2022-11-15T12:22:24;34.27;;;25.93;;
5876;SDS011;2964;42.144;24.730;2022-11-15T12:24:59;35.67;;;25.20;;
5876;SDS011;2964;42.144;24.730;2022-11-15T12:27:31;42.87;;;27.60;;
5876;SDS011;2964;42.144;24.730;2022-11-15T12:30:03;40.67;;;26.57;;
5876;SDS011;2964;42.144;24.730;2022-11-15T12:32:37;34.23;;;25.30;;
5876;SDS011;2964;42.144;24.730;2022-11-15T12:35:20;42.67;;;26.77;;
5876;SDS011;2964;42.144;24.730;2022-11-15T12:37:51;34.30;;;24.67;;
5876;SDS011;2964;42.144;24.730;2022-11-15T12:40:26;35.63;;;25.60;;
5876;SDS011;2964;42.144;24.730;2022-11-15T12:45:56;33.73;;;24.57;;
5876;SDS011;2964;42.144;24.730;2022-11-15T12:57:34;35.30;;;25.70;;
5876;SDS011;2964;42.144;24.730;2022-11-15T13:03:19;37.00;;;25.30;;
5876;SDS011;2964;42.144;24.730;2022-11-15T13:06:01;32.47;;;24.53;;
5876;SDS011;2964;42.144;24.730;2022-11-15T13:08:43;33.17;;;23.47;;
5876;SDS011;2964;42.144;24.730;2022-11-15T13:17:25;36.00;;;26.13;;
5876;SDS011;2964;42.144;24.730;2022-11-15T13:19:59;35.43;;;26.27;;
5876;SDS011;2964;42.144;24.730;2022-11-15T13:22:37;34.37;;;25.47;;
5876;SDS011;2964;42.144;24.730;2022-11-15T13:25:19;37.83;;;25.63;;
5876;SDS011;2964;42.144;24.730;2022-11-15T13:27:55;33.63;;;26.50;;
5876;SDS011;2964;42.144;24.730;2022-11-15T13:30:24;34.43;;;27.37;;
5876;SDS011;2964;42.144;24.730;2022-11-15T13:32:57;33.37;;;25.83;;
5876;SDS011;2964;42.144;24.730;2022-11-15T13:35:28;32.57;;;25.00;;
5876;SDS011;2964;42.144;24.730;2022-11-15T13:37:57;38.53;;;26.40;;
5876;SDS011;2964;42.144;24.730;2022-11-15T13:40:35;34.73;;;26.77;;
5876;SDS011;2964;42.144;24.730;2022-11-15T13:43:15;36.50;;;25.63;;
5876;SDS011;2964;42.144;24.730;2022-11-15T13:46:07;37.53;;;26.87;;
5876;SDS011;2964;42.144;24.730;2022-11-15T13:48:38;38.90;;;27.23;;
5876;SDS011;2964;42.144;24.730;2022-11-15T13:51:07;39.03;;;28.07;;
5876;SDS011;2964;42.144;24.730;2022-11-15T13:53:46;38.20;;;26.50;;
5876;SDS011;2964;42.144;24.730;2022-11-15T13:56:16;40.90;;;29.30;;
5876;SDS011;2964;42.144;24.730;2022-11-15T13:58:47;43.17;;;28.50;;
5876;SDS011;2964;42.144;24.730;2022-11-15T14:01:15;41.27;;;28.97;;
5876;SDS011;2964;42.144;24.730;2022-11-15T14:03:47;42.60;;;29.60;;
5876;SDS011;2964;42.144;24.730;2022-11-15T14:06:21;39.67;;;27.87;;
5876;SDS011;2964;42.144;24.730;2022-11-15T14:08:59;44.40;;;30.80;;
5876;SDS011;2964;42.144;24.730;2022-11-15T14:11:29;41.57;;;30.33;;
5876;SDS011;2964;42.144;24.730;2022-11-15T14:14:12;44.93;;;30.30;;
5876;SDS011;2964;42.144;24.730;2022-11-15T14:16:41;45.60;;;29.87;;
5876;SDS011;2964;42.144;24.730;2022-11-15T14:19:10;39.67;;;29.43;;
5876;SDS011;2964;42.144;24.730;2022-11-15T14:24:35;38.13;;;28.00;;
5876;SDS011;2964;42.144;24.730;2022-11-15T14:27:15;40.77;;;29.67;;
5876;SDS011;2964;42.144;24.730;2022-11-15T14:29:48;45.63;;;29.73;;
5876;SDS011;2964;42.144;24.730;2022-11-15T14:32:16;47.13;;;31.47;;
5876;SDS011;2964;42.144;24.730;2022-11-15T14:34:46;43.47;;;29.13;;
5876;SDS011;2964;42.144;24.730;2022-11-15T14:37:18;43.43;;;30.63;;
5876;SDS011;2964;42.144;24.730;2022-11-15T14:39:46;44.60;;;30.97;;
5876;SDS011;2964;42.144;24.730;2022-11-15T14:42:13;43.87;;;30.27;;
5876;SDS011;2964;42.144;24.730;2022-11-15T14:44:40;45.97;;;31.60;;
5876;SDS011;2964;42.144;24.730;2022-11-15T14:47:08;43.63;;;30.13;;
5876;SDS011;2964;42.144;24.730;2022-11-15T14:49:34;38.27;;;27.60;;
5876;SDS011;2964;42.144;24.730;2022-11-15T14:52:01;41.30;;;28.80;;
5876;SDS011;2964;42.144;24.730;2022-11-15T14:54:28;47.00;;;28.57;;
5876;SDS011;2964;42.144;24.730;2022-11-15T14:56:54;38.60;;;31.13;;
5876;SDS011;2964;42.144;24.730;2022-11-15T14:59:21;50.13;;;30.33;;
5876;SDS011;2964;42.144;24.730;2022-11-15T15:01:48;46.53;;;29.90;;
5876;SDS011;2964;42.144;24.730;2022-11-15T15:04:16;47.90;;;31.03;;
5876;SDS011;2964;42.144;24.730;2022-11-15T15:06:42;46.67;;;31.97;;
5876;SDS011;2964;42.144;24.730;2022-11-15T15:09:09;42.03;;;30.43;;
5876;SDS011;2964;42.144;24.730;2022-11-15T15:11:35;46.17;;;32.70;;
5876;SDS011;2964;42.144;24.730;2022-11-15T15:14:02;54.63;;;32.83;;
5876;SDS011;2964;42.144;24.730;2022-11-15T15:16:29;48.83;;;31.17;;
5876;SDS011;2964;42.144;24.730;2022-11-15T15:18:55;47.90;;;32.07;;